KBRO/BRO METAR and TAF weather

Enter ICAO airport designator
Station Type Date Time Source
KBRO METAR 2020/01/18 03:53 UTC NOAA

KBRO 180353Z 00000KT 10SM CLR 21/19 A3010 RMK AO2 SLP192 T02060189


Station Type Date Time Source
KBRO Decoded METAR 2020/01/18 03:53 UTC NOAA

BROWNSVILLE/SOUTH PADRE IS, TX, United States (KBRO) 25-54N 97-25W 5M
Jan 17, 2020 - 10:53 PM EST / 2020.01.18 0353 UTC
Wind: Calm:0
Visibility: 10 mile(s):0
Sky conditions: clear
Temperature: 69.1 F (20.6 C)
Dew Point: 66.0 F (18.9 C)
Relative Humidity: 89%
Pressure (altimeter): 30.1 in. Hg (1019 hPa)
ob: KBRO 180353Z 00000KT 10SM CLR 21/19 A3010 RMK AO2 SLP192 T02060189
cycle: 4

Station Type Date Time Source
KBRO TAF 2020/01/17 18:22 UTC NOAA

TAF KBRO 171720Z 1718/1818 14013KT P6SM SCT250
FM180700 16007KT 4SM BR BKN009
FM181200 VRB03KT P6SM BKN015 PROB30 1812/1818 4SM -SHRA OVC007

Example: see airport list